createdAt,value
2018-09-18T00:02:23.076Z,1.30
2018-09-18T00:05:05.807Z,1.80
2018-09-18T00:13:24.577Z,1.97
2018-09-18T00:15:59.400Z,1.57
2018-09-18T00:18:34.136Z,1.33
2018-09-18T00:52:52.568Z,1.40
2018-09-18T00:56:14.582Z,1.67
2018-09-18T01:01:41.945Z,1.63
2018-09-18T01:04:19.265Z,2.00
2018-09-18T01:06:54.549Z,1.70
2018-09-18T01:09:30.435Z,1.67
2018-09-18T01:12:05.767Z,1.57
2018-09-18T01:17:45.513Z,2.40
2018-09-18T01:20:20.855Z,1.53
2018-09-18T01:23:26.363Z,2.00
2018-09-18T01:32:08.695Z,1.40
2018-09-18T01:34:50.587Z,1.67
2018-09-18T01:37:27.975Z,1.73
2018-09-18T01:40:16.007Z,1.93
2018-09-18T01:48:35.292Z,1.70
2018-09-18T01:51:11.353Z,2.10
2018-09-18T01:53:47.203Z,1.77
2018-09-18T01:59:23.266Z,1.50
2018-09-18T02:05:01.278Z,1.73
2018-09-18T02:07:39.217Z,2.00
2018-09-18T02:10:15.439Z,1.93
2018-09-18T02:12:51.699Z,1.63
2018-09-18T02:15:26.595Z,1.60
2018-09-18T02:18:04.228Z,1.40
2018-09-18T02:20:41.713Z,1.50
2018-09-18T02:23:18.292Z,1.70
2018-09-18T02:25:59.361Z,1.90
2018-09-18T02:28:53.564Z,2.23
2018-09-18T02:31:31.025Z,1.80
2018-09-18T02:39:49.454Z,1.50
2018-09-18T02:43:29.164Z,1.50
2018-09-18T02:46:11.294Z,1.67
2018-09-18T02:55:18.983Z,1.60
2018-09-18T02:58:26.663Z,1.67
2018-09-18T03:01:09.505Z,1.83
2018-09-18T03:03:53.004Z,1.70
2018-09-18T03:06:29.471Z,1.80
2018-09-18T03:09:09.827Z,1.77
2018-09-18T03:11:50.620Z,1.90
2018-09-18T03:14:38.497Z,2.10
2018-09-18T03:20:05.247Z,1.97
2018-09-18T03:25:25.575Z,1.40
2018-09-18T03:28:01.533Z,2.17
2018-09-18T03:30:41.684Z,1.70
2018-09-18T03:33:19.592Z,1.70
2018-09-18T03:35:57.996Z,1.80
2018-09-18T03:38:33.748Z,2.10
2018-09-18T03:44:01.009Z,1.70
2018-09-18T03:46:35.946Z,1.90
2018-09-18T03:49:20.778Z,2.10
2018-09-18T03:55:08.412Z,1.90
2018-09-18T03:57:54.314Z,1.67
2018-09-18T04:00:29.248Z,1.60
2018-09-18T04:03:04.038Z,1.90
2018-09-18T04:06:26.361Z,2.00
2018-09-18T04:09:06.334Z,1.97
2018-09-18T04:11:52.721Z,1.80
2018-09-18T04:14:27.358Z,1.53
2018-09-18T04:17:06.790Z,2.03
2018-09-18T04:19:49.296Z,2.40
2018-09-18T04:25:21.877Z,1.73
2018-09-18T04:27:56.710Z,1.87
2018-09-18T04:30:31.846Z,2.40
2018-09-18T04:33:11.875Z,1.93
2018-09-18T04:35:52.074Z,1.80
2018-09-18T04:38:27.492Z,1.90
2018-09-18T04:41:02.651Z,1.77
2018-09-18T04:43:39.298Z,2.03
2018-09-18T04:46:21.705Z,1.90
2018-09-18T04:49:15.066Z,1.93
2018-09-18T04:54:59.120Z,2.40
2018-09-18T04:57:34.654Z,1.50
2018-09-18T05:00:20.356Z,1.70
2018-09-18T05:06:00.687Z,1.90
2018-09-18T05:09:33.985Z,1.60
2018-09-18T05:12:12.672Z,1.40
2018-09-18T05:16:09.590Z,1.90
2018-09-18T05:21:50.752Z,2.20
2018-09-18T05:24:40.053Z,2.03
2018-09-18T05:28:02.634Z,2.17
2018-09-18T05:48:23.843Z,1.87
2018-09-18T05:56:49.380Z,1.77
2018-09-18T05:59:25.259Z,2.03
2018-09-18T06:14:12.563Z,2.47
2018-09-18T06:22:33.107Z,1.83
2018-09-18T06:25:10.183Z,1.83
2018-09-18T06:29:33.300Z,1.53
2018-09-18T06:32:08.499Z,1.40
2018-09-18T06:34:49.186Z,2.00
2018-09-18T06:37:27.073Z,1.87
2018-09-18T06:49:35.984Z,1.60
2018-09-18T06:52:10.157Z,1.60
2018-09-18T06:54:47.790Z,1.57
2018-09-18T06:57:22.850Z,2.23
2018-09-18T07:02:56.419Z,1.63
2018-09-18T07:05:31.012Z,2.03
2018-09-18T07:08:05.072Z,1.97
2018-09-18T07:10:39.320Z,1.70
2018-09-18T07:13:14.516Z,1.70
2018-09-18T07:15:48.477Z,1.53
2018-09-18T07:18:22.711Z,1.63
2018-09-18T07:20:56.775Z,1.67
2018-09-18T07:23:30.707Z,1.90
2018-09-18T07:26:04.698Z,1.60
2018-09-18T07:28:38.758Z,2.10
2018-09-18T07:31:12.736Z,2.17
2018-09-18T07:33:46.723Z,2.17
2018-09-18T07:36:21.490Z,2.67
2018-09-18T07:38:55.708Z,3.07
2018-09-18T07:41:29.654Z,3.27
2018-09-18T07:44:03.743Z,3.10
2018-09-18T07:46:37.656Z,2.40
2018-09-18T07:49:11.635Z,2.37
2018-09-18T07:51:45.721Z,1.87
2018-09-18T07:54:19.826Z,2.00
2018-09-18T07:56:53.945Z,2.20
2018-09-18T07:59:27.999Z,2.53
2018-09-18T08:04:41.144Z,2.10
2018-09-18T08:07:15.510Z,2.13
2018-09-18T08:09:50.649Z,2.00
2018-09-18T08:12:25.113Z,1.80
2018-09-18T08:14:59.288Z,2.13
2018-09-18T08:17:33.351Z,2.17
2018-09-18T08:20:07.326Z,2.30
2018-09-18T08:25:23.188Z,2.30
2018-09-18T08:27:57.332Z,2.50
2018-09-18T08:30:31.130Z,2.60
2018-09-18T08:33:05.491Z,2.27
2018-09-18T08:35:39.662Z,2.50
2018-09-18T08:38:14.708Z,2.37
2018-09-18T08:40:48.782Z,2.30
2018-09-18T08:43:22.992Z,2.23
2018-09-18T08:45:57.043Z,2.37
2018-09-18T08:48:32.102Z,2.13
2018-09-18T08:51:05.849Z,2.17
2018-09-18T08:53:39.945Z,2.80
2018-09-18T08:56:13.719Z,2.00
2018-09-18T08:58:48.344Z,2.47
2018-09-18T09:01:22.168Z,2.73
2018-09-18T09:03:56.352Z,2.20
2018-09-18T09:06:30.361Z,2.40
2018-09-18T09:09:06.379Z,2.10
2018-09-18T09:11:41.486Z,2.63
2018-09-18T09:14:15.414Z,1.80
2018-09-18T09:16:49.391Z,2.30
2018-09-18T09:19:23.677Z,2.37
2018-09-18T09:21:57.960Z,2.20
2018-09-18T09:24:31.618Z,2.13
2018-09-18T09:27:06.354Z,2.47
2018-09-18T09:29:40.588Z,2.10
2018-09-18T09:32:14.601Z,1.60
2018-09-18T09:34:48.334Z,1.90
2018-09-18T09:37:22.238Z,2.20
2018-09-18T09:39:56.188Z,2.10
2018-09-18T09:42:29.986Z,2.23
2018-09-18T09:45:03.997Z,1.90
2018-09-18T09:47:37.951Z,2.10
2018-09-18T09:50:11.970Z,2.10
2018-09-18T09:52:45.977Z,2.30
2018-09-18T09:55:19.981Z,2.17
2018-09-18T09:57:53.887Z,2.30
2018-09-18T10:00:33.326Z,2.53
2018-09-18T10:03:07.411Z,2.30
2018-09-18T10:05:41.318Z,2.03
2018-09-18T10:08:15.151Z,2.23
2018-09-18T10:10:48.972Z,2.10
2018-09-18T10:13:23.369Z,1.90
2018-09-18T10:15:57.516Z,2.00
2018-09-18T10:18:31.567Z,2.60
2018-09-18T10:21:05.496Z,1.97
2018-09-18T10:23:39.661Z,2.13
2018-09-18T10:26:13.576Z,1.67
2018-09-18T10:28:47.443Z,2.10
2018-09-18T10:31:21.773Z,2.20
2018-09-18T10:33:55.600Z,2.20
2018-09-18T10:36:29.662Z,2.33
2018-09-18T10:39:04.021Z,1.93
2018-09-18T10:41:37.981Z,1.90
2018-09-18T10:44:12.558Z,2.20
2018-09-18T10:46:46.446Z,2.30
2018-09-18T10:49:20.322Z,2.13
2018-09-18T10:51:54.271Z,2.10
2018-09-18T10:54:28.192Z,2.23
2018-09-18T10:57:02.147Z,2.10
2018-09-18T10:59:36.161Z,2.00
2018-09-18T11:02:10.122Z,2.27
2018-09-18T11:04:44.551Z,1.80
2018-09-18T11:07:18.586Z,2.00
2018-09-18T11:09:52.412Z,1.97
2018-09-18T11:12:26.335Z,2.57
2018-09-18T11:15:00.239Z,2.07
2018-09-18T11:17:34.154Z,2.57
2018-09-18T11:20:08.408Z,2.97
2018-09-18T11:22:42.493Z,2.00
2018-09-18T11:25:16.361Z,2.60
2018-09-18T11:27:50.381Z,2.10
2018-09-18T11:30:24.466Z,2.27
2018-09-18T11:32:58.606Z,2.00
2018-09-18T11:35:32.479Z,2.13
2018-09-18T11:38:06.841Z,2.47
2018-09-18T11:40:41.961Z,2.63
2018-09-18T11:43:15.843Z,2.00
2018-09-18T11:45:50.354Z,2.50
2018-09-18T11:48:24.624Z,2.10
2018-09-18T11:50:59.588Z,2.40
2018-09-18T11:53:33.534Z,2.40
2018-09-18T11:56:08.049Z,2.20
2018-09-18T11:58:43.902Z,2.67
2018-09-18T12:01:18.965Z,2.63
2018-09-18T12:03:52.812Z,2.30
2018-09-18T12:06:29.020Z,2.40
2018-09-18T12:09:09.837Z,2.50
2018-09-18T12:11:44.878Z,2.63
2018-09-18T12:14:18.849Z,2.57
2018-09-18T12:16:53.740Z,2.30
2018-09-18T12:19:31.307Z,2.20
2018-09-18T12:22:05.318Z,2.50
2018-09-18T12:24:39.620Z,2.20
2018-09-18T12:27:13.796Z,2.40
2018-09-18T12:29:52.501Z,2.13
2018-09-18T12:32:28.384Z,2.47
2018-09-18T12:35:03.256Z,2.30
2018-09-18T12:37:38.963Z,2.30
2018-09-18T12:40:13.017Z,2.37
2018-09-18T12:42:57.737Z,2.60
2018-09-18T12:45:32.223Z,2.40
2018-09-18T12:48:08.127Z,2.70
2018-09-18T12:50:42.521Z,2.40
2018-09-18T12:53:19.341Z,2.10
2018-09-18T12:55:53.815Z,2.50
2018-09-18T12:58:27.979Z,2.30
2018-09-18T13:01:02.527Z,2.17
2018-09-18T13:03:36.686Z,2.23
2018-09-18T13:06:12.615Z,2.40
2018-09-18T13:08:46.675Z,2.27
2018-09-18T13:11:21.535Z,2.60
2018-09-18T13:14:00.498Z,2.50
2018-09-18T13:16:34.824Z,2.60
2018-09-18T13:19:08.773Z,2.50
2018-09-18T13:21:42.563Z,2.90
2018-09-18T13:24:18.765Z,2.27
2018-09-18T13:26:54.444Z,2.43
2018-09-18T13:29:28.741Z,2.40
2018-09-18T13:32:02.475Z,2.30
2018-09-18T13:34:42.862Z,2.50
2018-09-18T13:37:17.698Z,2.73
2018-09-18T13:39:52.501Z,3.00
2018-09-18T13:42:26.202Z,2.77
2018-09-18T13:45:02.092Z,2.47
2018-09-18T13:47:36.124Z,2.47
2018-09-18T13:50:10.713Z,2.70
2018-09-18T13:52:44.569Z,2.20
2018-09-18T13:55:18.842Z,2.67
2018-09-18T13:57:52.633Z,2.90
2018-09-18T14:00:26.669Z,2.50
2018-09-18T14:03:00.549Z,2.40
2018-09-18T14:05:34.532Z,3.20
2018-09-18T14:08:08.307Z,2.90
2018-09-18T14:10:42.860Z,3.07
2018-09-18T14:13:16.778Z,2.57
2018-09-18T14:15:50.636Z,2.40
2018-09-18T14:18:24.511Z,2.70
2018-09-18T14:20:59.118Z,2.70
2018-09-18T14:23:33.440Z,2.83
2018-09-18T14:26:07.891Z,2.87
2018-09-18T14:28:43.061Z,2.83
2018-09-18T14:31:17.399Z,2.90
2018-09-18T14:33:52.007Z,3.30
2018-09-18T14:36:25.834Z,3.17
2018-09-18T14:38:59.796Z,2.70
2018-09-18T14:41:34.442Z,2.90
2018-09-18T14:44:11.076Z,3.17
2018-09-18T14:46:45.152Z,3.00
2018-09-18T14:49:19.254Z,3.00
2018-09-18T14:51:55.151Z,2.93
2018-09-18T14:54:30.781Z,3.17
2018-09-18T14:57:06.070Z,2.87
2018-09-18T14:59:40.269Z,3.00
2018-09-18T15:02:16.195Z,3.10
2018-09-18T15:04:50.040Z,3.03
2018-09-18T15:07:24.091Z,2.50
2018-09-18T15:09:57.833Z,2.43
2018-09-18T15:12:31.874Z,2.90
2018-09-18T15:15:05.850Z,2.70
2018-09-18T15:17:39.689Z,3.50
2018-09-18T15:20:13.370Z,2.90
2018-09-18T15:22:47.285Z,2.63
2018-09-18T15:25:21.292Z,2.50
2018-09-18T15:27:55.030Z,2.80
2018-09-18T15:30:28.779Z,2.93
2018-09-18T15:33:02.725Z,2.67
2018-09-18T15:35:36.604Z,2.60
2018-09-18T15:38:10.534Z,2.83
2018-09-18T15:40:44.457Z,2.90
2018-09-18T15:43:18.278Z,3.07
2018-09-18T15:45:52.188Z,3.20
2018-09-18T15:48:25.969Z,2.70
2018-09-18T15:50:59.895Z,3.17
2018-09-18T15:53:33.911Z,2.93
2018-09-18T15:56:07.725Z,2.77
2018-09-18T15:58:41.655Z,2.90
2018-09-18T16:01:15.442Z,2.80
2018-09-18T16:03:49.211Z,2.77
2018-09-18T16:06:23.141Z,2.73
2018-09-18T16:08:57.202Z,3.10
2018-09-18T16:11:31.131Z,3.03
2018-09-18T16:14:04.773Z,3.13
2018-09-18T16:16:38.728Z,3.13
2018-09-18T16:19:12.615Z,3.00
2018-09-18T16:21:46.471Z,2.83
2018-09-18T16:24:20.391Z,2.47
2018-09-18T16:26:54.667Z,2.90
2018-09-18T16:29:28.648Z,2.30
2018-09-18T16:32:02.488Z,2.50
2018-09-18T16:34:36.282Z,2.60
2018-09-18T16:37:10.064Z,2.47
2018-09-18T16:39:43.993Z,2.50
2018-09-18T16:42:17.754Z,3.10
2018-09-18T16:44:51.703Z,2.60
2018-09-18T16:47:25.763Z,2.20
2018-09-18T16:49:59.594Z,2.50
2018-09-18T16:52:33.870Z,2.40
2018-09-18T16:55:07.869Z,1.90
2018-09-18T16:57:41.510Z,2.50
2018-09-18T17:00:15.231Z,2.40
2018-09-18T17:02:49.059Z,2.20
2018-09-18T17:05:22.969Z,2.13
2018-09-18T17:07:56.718Z,2.33
2018-09-18T17:10:30.773Z,2.67
2018-09-18T17:13:04.559Z,2.57
2018-09-18T17:15:38.682Z,2.27
2018-09-18T17:18:12.609Z,2.07
2018-09-18T17:20:46.411Z,1.90
2018-09-18T17:23:26.956Z,1.80
2018-09-18T17:26:01.559Z,2.27
2018-09-18T17:28:35.427Z,2.07
2018-09-18T17:31:10.189Z,2.37
2018-09-18T17:33:44.271Z,2.10
2018-09-18T17:36:18.476Z,2.10
2018-09-18T17:38:52.415Z,1.90
2018-09-18T17:41:26.258Z,2.03
2018-09-18T17:44:00.598Z,2.03
2018-09-18T17:46:34.490Z,2.00
2018-09-18T17:49:08.879Z,2.20
2018-09-18T17:51:42.855Z,2.00
2018-09-18T17:54:16.629Z,1.90
2018-09-18T17:56:50.606Z,1.70
2018-09-18T17:59:24.871Z,1.87
2018-09-18T18:01:58.913Z,1.70
2018-09-18T18:04:33.005Z,1.97
2018-09-18T18:07:07.142Z,2.00
2018-09-18T18:09:41.038Z,1.90
2018-09-18T18:12:15.002Z,2.10
2018-09-18T18:14:49.078Z,1.87
2018-09-18T18:17:23.100Z,1.70
2018-09-18T18:19:57.130Z,2.07
2018-09-18T18:22:30.974Z,2.00
2018-09-18T18:25:05.295Z,1.50
2018-09-18T18:27:39.120Z,2.17
2018-09-18T18:30:13.023Z,1.73
2018-09-18T18:32:47.017Z,1.50
2018-09-18T18:35:20.775Z,1.47
2018-09-18T18:37:54.951Z,1.70
2018-09-18T18:40:28.829Z,1.87
2018-09-18T18:43:02.666Z,1.60
2018-09-18T18:45:36.470Z,1.40
2018-09-18T18:48:10.351Z,1.47
2018-09-18T18:50:44.107Z,1.63
2018-09-18T18:53:17.917Z,1.40
2018-09-18T18:55:51.807Z,1.87
2018-09-18T18:58:25.732Z,1.53
2018-09-18T19:00:59.584Z,1.57
2018-09-18T19:03:33.487Z,1.53
2018-09-18T19:06:07.431Z,2.10
2018-09-18T19:08:41.342Z,1.83
2018-09-18T19:11:15.271Z,1.73
2018-09-18T19:13:49.336Z,1.80
2018-09-18T19:16:23.260Z,1.70
2018-09-18T19:18:57.235Z,1.60
2018-09-18T19:21:30.886Z,1.63
2018-09-18T19:24:05.342Z,1.83
2018-09-18T19:26:39.231Z,1.80
2018-09-18T19:29:12.996Z,1.70
2018-09-18T19:31:46.846Z,1.70
2018-09-18T19:34:20.861Z,1.83
2018-09-18T19:36:54.816Z,1.70
2018-09-18T19:39:28.911Z,1.57
2018-09-18T19:42:02.860Z,1.90
2018-09-18T19:44:36.815Z,1.73
2018-09-18T19:47:10.722Z,1.40
2018-09-18T19:49:44.578Z,1.77
2018-09-18T19:52:18.496Z,2.00
2018-09-18T19:54:52.619Z,2.00
2018-09-18T19:57:26.478Z,2.17
2018-09-18T20:00:00.479Z,1.80
2018-09-18T20:02:34.460Z,2.13
2018-09-18T20:05:08.440Z,2.10
2018-09-18T20:07:42.389Z,2.00
2018-09-18T20:10:16.452Z,1.70
2018-09-18T20:12:50.341Z,2.13
2018-09-18T20:15:24.106Z,2.20
2018-09-18T20:17:58.221Z,2.13
2018-09-18T20:20:32.123Z,2.10
2018-09-18T20:23:06.233Z,2.07
2018-09-18T20:25:41.303Z,1.93
2018-09-18T20:28:15.647Z,2.00
2018-09-18T20:30:49.533Z,2.07
2018-09-18T20:33:24.742Z,1.87
2018-09-18T20:35:59.739Z,2.37
2018-09-18T20:38:33.574Z,2.20
2018-09-18T20:41:07.619Z,2.10
2018-09-18T20:43:41.419Z,2.40
2018-09-18T20:46:15.224Z,2.50
2018-09-18T20:48:49.217Z,2.30
2018-09-18T20:51:25.268Z,2.37
2018-09-18T20:53:59.613Z,2.10
2018-09-18T20:56:33.603Z,2.03
2018-09-18T20:59:07.698Z,2.23
2018-09-18T21:01:44.956Z,2.10
2018-09-18T21:04:18.958Z,2.00
2018-09-18T21:06:53.040Z,2.33
2018-09-18T21:09:27.088Z,2.30
2018-09-18T21:12:01.095Z,2.07
2018-09-18T21:14:34.992Z,3.30
2018-09-18T21:17:08.821Z,2.40
2018-09-18T21:19:42.822Z,1.90
2018-09-18T21:22:16.770Z,2.30
2018-09-18T21:24:52.946Z,2.37
2018-09-18T21:27:26.959Z,2.03
2018-09-18T21:30:00.865Z,2.23
2018-09-18T21:32:34.943Z,2.20
2018-09-18T21:35:09.525Z,2.30
2018-09-18T21:37:43.424Z,2.63
2018-09-18T21:40:17.436Z,2.60
2018-09-18T21:42:51.295Z,2.60
2018-09-18T21:45:25.507Z,2.40
2018-09-18T21:48:00.263Z,2.40
2018-09-18T21:50:38.700Z,2.53
2018-09-18T21:53:14.151Z,2.40
2018-09-18T21:55:49.621Z,2.80
2018-09-18T21:58:23.693Z,2.70
2018-09-18T22:00:57.701Z,2.50
2018-09-18T22:03:31.967Z,2.30
2018-09-18T22:06:05.846Z,2.23
2018-09-18T22:08:39.844Z,3.60
2018-09-18T22:11:13.819Z,2.90
2018-09-18T22:13:48.112Z,2.80
2018-09-18T22:16:22.868Z,2.60
2018-09-18T22:18:56.833Z,2.50
2018-09-18T22:21:31.458Z,2.60
2018-09-18T22:24:05.462Z,2.27
2018-09-18T22:26:39.402Z,2.50
2018-09-18T22:29:13.414Z,2.70
2018-09-18T22:31:47.531Z,2.60
2018-09-18T22:34:22.519Z,2.70
2018-09-18T22:36:56.714Z,2.90
2018-09-18T22:39:30.618Z,2.30
2018-09-18T22:42:04.582Z,2.57
2018-09-18T22:44:38.675Z,2.20
2018-09-18T22:47:12.813Z,2.73
2018-09-18T22:49:46.838Z,3.10
2018-09-18T22:52:21.174Z,2.60
2018-09-18T22:54:55.173Z,2.50
2018-09-18T22:57:29.157Z,2.27
2018-09-18T23:00:03.043Z,2.60
2018-09-18T23:02:37.001Z,2.73
2018-09-18T23:05:10.924Z,2.27
2018-09-18T23:07:45.196Z,2.80
2018-09-18T23:10:19.218Z,2.40
2018-09-18T23:12:53.003Z,2.67
2018-09-18T23:15:27.147Z,2.77
2018-09-18T23:18:01.060Z,2.80
2018-09-18T23:20:34.895Z,2.70
2018-09-18T23:23:08.959Z,2.60
2018-09-18T23:25:42.868Z,2.57
2018-09-18T23:28:16.971Z,2.80
2018-09-18T23:30:51.060Z,2.70
2018-09-18T23:33:24.942Z,3.10
2018-09-18T23:35:58.819Z,2.67
2018-09-18T23:38:32.700Z,2.80
2018-09-18T23:41:06.834Z,2.40
2018-09-18T23:43:40.756Z,3.07
2018-09-18T23:46:14.739Z,2.60
2018-09-18T23:48:48.707Z,2.70
2018-09-18T23:51:22.622Z,3.20
2018-09-18T23:53:56.829Z,2.90
2018-09-18T23:56:30.604Z,2.87
2018-09-18T23:59:04.647Z,2.87
